createdAt,value
2022-12-19T00:01:10.215Z,-9.6
2022-12-19T00:06:10.125Z,-9.7
2022-12-19T00:11:11.251Z,-9.7
2022-12-19T00:16:11.931Z,-9.7
2022-12-19T00:21:11.169Z,-9.7
2022-12-19T00:26:11.925Z,-9.5
2022-12-19T00:31:11.341Z,-9.6
2022-12-19T00:41:12.761Z,-9.6
2022-12-19T00:46:10.270Z,-9.6
2022-12-19T00:51:10.659Z,-9.7
2022-12-19T01:01:10.322Z,-9.7
2022-12-19T01:06:10.016Z,-9.7
2022-12-19T01:11:26.080Z,-9.7
2022-12-19T01:16:10.083Z,-9.8
2022-12-19T01:21:10.033Z,-9.9
2022-12-19T01:26:11.113Z,-9.9
2022-12-19T01:31:10.875Z,-10.0
2022-12-19T01:36:09.977Z,-10.0
2022-12-19T01:41:09.917Z,-10.1
2022-12-19T01:46:10.111Z,-10.1
2022-12-19T01:51:09.925Z,-10.2
2022-12-19T01:56:10.102Z,-10.2
2022-12-19T02:01:09.973Z,-10.3
2022-12-19T02:06:09.891Z,-10.4
2022-12-19T02:11:10.588Z,-10.4
2022-12-19T02:16:10.867Z,-10.5
2022-12-19T02:21:09.889Z,-10.5
2022-12-19T02:26:09.807Z,-10.6
2022-12-19T02:31:13.821Z,-10.6
2022-12-19T02:36:09.877Z,-10.7
2022-12-19T02:41:09.823Z,-10.8
2022-12-19T02:46:10.182Z,-10.8
2022-12-19T02:51:09.845Z,-10.9
2022-12-19T02:56:11.066Z,-10.8
2022-12-19T03:01:09.980Z,-10.8
2022-12-19T03:06:11.170Z,-10.7
2022-12-19T03:11:10.051Z,-10.6
2022-12-19T03:16:09.811Z,-10.7
2022-12-19T03:21:10.034Z,-10.7
2022-12-19T03:26:09.729Z,-10.7
2022-12-19T03:31:09.779Z,-10.8
2022-12-19T03:36:09.899Z,-10.9
2022-12-19T03:41:09.787Z,-10.9
2022-12-19T03:46:09.912Z,-11.0
2022-12-19T03:51:10.143Z,-11.1
2022-12-19T03:56:09.766Z,-11.1
2022-12-19T04:01:09.951Z,-11.2
2022-12-19T04:06:09.792Z,-11.3
2022-12-19T04:11:09.960Z,-11.3
2022-12-19T04:16:09.812Z,-11.3
2022-12-19T04:21:09.637Z,-11.3
2022-12-19T04:26:09.693Z,-11.4
2022-12-19T04:31:09.728Z,-11.6
2022-12-19T04:36:09.841Z,-11.7
2022-12-19T04:41:09.653Z,-11.8
2022-12-19T04:46:09.648Z,-11.9
2022-12-19T04:51:10.061Z,-12.0
2022-12-19T04:56:10.481Z,-12.1
2022-12-19T05:01:20.342Z,-12.2
2022-12-19T05:06:09.545Z,-12.3
2022-12-19T05:11:13.283Z,-12.4
2022-12-19T05:16:09.979Z,-12.4
2022-12-19T05:21:10.638Z,-12.5
2022-12-19T05:26:11.365Z,-12.6
2022-12-19T05:31:09.579Z,-12.7
2022-12-19T05:36:10.050Z,-12.8
2022-12-19T05:41:09.912Z,-12.8
2022-12-19T05:46:09.738Z,-12.9
2022-12-19T05:51:09.752Z,-12.9
2022-12-19T05:56:09.691Z,-12.9
2022-12-19T06:01:09.797Z,-12.9
2022-12-19T06:06:09.966Z,-12.8
2022-12-19T06:11:10.630Z,-12.8
2022-12-19T06:16:12.364Z,-12.8
2022-12-19T06:21:09.583Z,-12.8
2022-12-19T06:26:14.239Z,-12.7
2022-12-19T08:31:13.629Z,-10.2
2022-12-19T08:36:09.970Z,-10.1
2022-12-19T08:41:10.072Z,-9.9
2022-12-19T08:46:09.959Z,-9.7
2022-12-19T08:51:09.881Z,-9.5
2022-12-19T08:56:09.999Z,-9.4
2022-12-19T09:01:09.966Z,-9.2
2022-12-19T09:06:17.882Z,-9.0
2022-12-19T09:11:09.853Z,-8.9
2022-12-19T09:16:09.941Z,-8.7
2022-12-19T09:17:34.378Z,-8.5
2022-12-19T09:22:33.717Z,-8.5
2022-12-19T09:28:01.185Z,-8.3
2022-12-19T09:32:33.681Z,-8.1
2022-12-19T09:37:33.918Z,-7.9
2022-12-19T09:42:34.146Z,-7.9
2022-12-19T09:47:33.504Z,-7.8
2022-12-19T09:52:33.541Z,-7.8
2022-12-19T09:57:33.536Z,-7.6
2022-12-19T10:02:33.749Z,-7.3
2022-12-19T10:08:01.454Z,-7.1
2022-12-19T10:12:42.399Z,-6.8
2022-12-19T10:17:33.476Z,-6.5
2022-12-19T10:22:33.418Z,-6.3
2022-12-19T10:27:33.548Z,-6.1
2022-12-19T10:32:33.475Z,-5.8
2022-12-19T10:37:42.320Z,-5.6
2022-12-19T10:42:33.420Z,-5.4
2022-12-19T10:47:33.455Z,-5.2
2022-12-19T10:52:32.748Z,-5.1
2022-12-19T10:57:32.720Z,-5.0
2022-12-19T11:02:33.188Z,-4.9
2022-12-19T11:07:32.676Z,-4.8
2022-12-19T11:18:03.645Z,-4.8
2022-12-19T11:24:15.112Z,-4.7
2022-12-19T11:29:39.636Z,-4.6
2022-12-19T11:30:36.555Z,-4.5
2022-12-19T11:32:40.951Z,-4.5
2022-12-19T11:37:33.455Z,-4.4
2022-12-19T11:42:33.247Z,-4.3
2022-12-19T11:47:33.290Z,-4.2
2022-12-19T11:53:02.926Z,-4.1
2022-12-19T11:57:33.288Z,-4.0
2022-12-19T12:02:33.291Z,-3.9
2022-12-19T12:07:49.778Z,-3.8
2022-12-19T12:19:40.601Z,-3.8
2022-12-19T12:31:00.175Z,-3.7
2022-12-19T12:31:29.215Z,-3.7
2022-12-19T12:32:06.047Z,-3.7
2022-12-19T12:35:33.438Z,-3.6
2022-12-19T12:38:14.814Z,-3.6
2022-12-19T12:42:32.606Z,-3.6
2022-12-19T12:47:32.370Z,-3.6
2022-12-19T12:52:32.411Z,-3.6
2022-12-19T12:57:32.820Z,-3.6
2022-12-19T13:02:32.972Z,-3.6
2022-12-19T13:07:32.660Z,-3.7
2022-12-19T13:12:33.289Z,-3.7
2022-12-19T13:17:33.430Z,-3.8
2022-12-19T13:22:32.331Z,-3.8
2022-12-19T13:27:32.908Z,-3.8
2022-12-19T13:32:32.420Z,-3.8
2022-12-19T13:39:56.519Z,-3.8
2022-12-19T13:42:32.616Z,-3.9
2022-12-19T13:47:32.281Z,-3.9
2022-12-19T13:52:32.353Z,-4.0
2022-12-19T13:57:32.602Z,-4.1
2022-12-19T14:02:32.600Z,-4.2
2022-12-19T14:07:35.914Z,-4.3
2022-12-19T14:13:57.166Z,-4.3
2022-12-19T14:17:32.375Z,-4.4
2022-12-19T14:22:32.235Z,-4.4
2022-12-19T14:28:23.324Z,-4.5
2022-12-19T14:33:47.499Z,-4.6
2022-12-19T14:38:03.295Z,-4.7
2022-12-19T14:43:55.452Z,-4.8
2022-12-19T14:54:03.317Z,-4.9
2022-12-19T14:54:23.893Z,-5.0
2022-12-19T14:58:51.320Z,-5.1
2022-12-19T15:02:33.925Z,-5.2
2022-12-19T15:07:32.976Z,-5.3
2022-12-19T15:14:04.192Z,-5.4
2022-12-19T15:17:32.911Z,-5.5
2022-12-19T15:22:32.897Z,-5.6
2022-12-19T15:27:32.914Z,-5.7
2022-12-19T15:32:32.988Z,-5.8
2022-12-19T15:37:32.841Z,-5.8
2022-12-19T15:42:33.246Z,-5.8
2022-12-19T15:47:32.918Z,-5.9
2022-12-19T15:52:33.076Z,-5.9
2022-12-19T15:57:32.868Z,-5.9
2022-12-19T16:03:12.907Z,-6.0
2022-12-19T16:07:32.899Z,-6.0
2022-12-19T16:12:32.813Z,-5.9
2022-12-19T16:17:32.982Z,-5.9
2022-12-19T16:22:32.931Z,-5.9
2022-12-19T16:27:33.030Z,-5.9
2022-12-19T16:32:32.815Z,-5.9
2022-12-19T16:37:32.786Z,-5.9
2022-12-19T16:42:33.139Z,-5.9
2022-12-19T16:47:32.801Z,-5.9
2022-12-19T16:52:37.446Z,-5.9
2022-12-19T16:57:32.653Z,-6.0
2022-12-19T17:02:32.911Z,-6.0
2022-12-19T17:07:32.668Z,-6.0
2022-12-19T17:12:35.270Z,-6.0
2022-12-19T17:17:32.745Z,-6.0
2022-12-19T17:22:33.363Z,-6.0
2022-12-19T17:27:32.929Z,-5.9
2022-12-19T17:32:33.469Z,-5.8
2022-12-19T17:37:33.557Z,-5.8
2022-12-19T17:42:37.264Z,-5.7
2022-12-19T17:47:33.981Z,-5.6
2022-12-19T17:52:32.845Z,-5.5
2022-12-19T17:57:32.980Z,-5.4
2022-12-19T18:02:33.113Z,-5.3
2022-12-19T18:07:32.903Z,-5.2
2022-12-19T18:12:40.207Z,-5.2
2022-12-19T18:22:33.848Z,-5.1
2022-12-19T18:32:32.664Z,-5.0
2022-12-19T18:37:32.707Z,-4.9
2022-12-19T18:42:48.724Z,-4.9
2022-12-19T18:47:32.444Z,-4.8
2022-12-19T18:52:33.663Z,-4.8
2022-12-19T18:57:32.491Z,-4.8
2022-12-19T19:02:32.855Z,-4.7
2022-12-19T19:07:34.079Z,-4.7
2022-12-19T19:12:32.955Z,-4.7
2022-12-19T19:17:32.471Z,-4.7
2022-12-19T19:22:32.925Z,-4.6
2022-12-19T19:27:32.588Z,-4.6
2022-12-19T19:32:33.541Z,-4.5
2022-12-19T19:37:32.492Z,-4.5
2022-12-19T19:42:32.711Z,-4.4
2022-12-19T19:47:33.050Z,-4.3
2022-12-19T19:52:33.087Z,-4.3
2022-12-19T19:57:33.717Z,-4.3
2022-12-19T20:02:32.914Z,-4.2
2022-12-19T20:07:33.146Z,-4.2
2022-12-19T20:12:33.991Z,-4.1
2022-12-19T20:17:32.566Z,-4.1
2022-12-19T20:22:32.418Z,-4.0
2022-12-19T20:27:32.468Z,-3.9
2022-12-19T20:32:31.676Z,-3.8
2022-12-19T20:37:31.728Z,-3.7
2022-12-19T20:42:31.521Z,-3.5
2022-12-19T20:47:32.037Z,-3.4
2022-12-19T20:52:31.727Z,-3.3
2022-12-19T20:57:31.557Z,-3.2
2022-12-19T21:02:52.506Z,-3.1
2022-12-19T21:07:31.653Z,-3.0
2022-12-19T21:12:31.565Z,-2.9
2022-12-19T21:17:33.333Z,-2.8
2022-12-19T21:22:31.495Z,-2.7
2022-12-19T21:27:31.561Z,-2.6
2022-12-19T21:32:31.649Z,-2.6
2022-12-19T21:37:31.640Z,-2.5
2022-12-19T21:42:31.856Z,-2.5
2022-12-19T21:47:31.773Z,-2.5
2022-12-19T21:52:31.349Z,-2.4
2022-12-19T21:57:32.596Z,-2.4
2022-12-19T22:02:31.521Z,-2.3
2022-12-19T22:07:31.419Z,-2.3
2022-12-19T22:12:31.322Z,-2.2
2022-12-19T22:17:31.385Z,-2.2
2022-12-19T22:22:31.472Z,-2.1
2022-12-19T22:27:31.362Z,-2.1
2022-12-19T22:32:31.341Z,-2.1
2022-12-19T22:37:31.634Z,-2.0
2022-12-19T22:42:31.319Z,-2.0
2022-12-19T22:47:31.268Z,-2.0
2022-12-19T22:52:31.491Z,-2.0
2022-12-19T22:57:31.340Z,-1.9
2022-12-19T23:02:31.451Z,-1.9
2022-12-19T23:07:31.510Z,-1.9
2022-12-19T23:12:31.298Z,-1.9
2022-12-19T23:17:31.286Z,-1.8
2022-12-19T23:22:31.497Z,-1.8
2022-12-19T23:27:31.258Z,-1.8
2022-12-19T23:32:31.189Z,-1.7
2022-12-19T23:37:31.850Z,-1.7
2022-12-19T23:42:31.251Z,-1.7
2022-12-19T23:47:31.329Z,-1.7
2022-12-19T23:52:31.376Z,-1.7
2022-12-19T23:57:31.198Z,-1.6
